KCDC/CDC METAR and TAF weather

Enter ICAO airport designator
Station Type Date Time Source
KCDC METAR 2018/07/21 12:53 UTC NOAA

KCDC 211253Z AUTO 00000KT 10SM CLR 18/12 A3020 RMK AO2 SLP142 T01780117


Station Type Date Time Source
KCDC Decoded METAR 2018/07/21 12:53 UTC NOAA

CEDAR CITY MUN AIRPORT, UT, United States (KCDC) 37-42N 113-06W 1714M
Jul 21, 2018 - 08:53 AM EDT / 2018.07.21 1253 UTC
Wind: Calm:0
Visibility: 10 mile(s):0
Sky conditions: clear
Temperature: 64.0 F (17.8 C)
Dew Point: 53.1 F (11.7 C)
Relative Humidity: 67%
Pressure (altimeter): 30.2 in. Hg (1022 hPa)
ob: KCDC 211253Z AUTO 00000KT 10SM CLR 18/12 A3020 RMK AO2 SLP142 T01780117
cycle: 13

Station Type Date Time Source
KCDC TAF 2018/07/21 12:22 UTC NOAA

TAF KCDC 211120Z 2112/2212 14006KT P6SM SCT150
FM211600 23008KT P6SM SCT120
FM212000 22010G18KT P6SM VCSH SCT080 BKN150
FM220100 18007KT P6SM SCT100 BKN150


Example: see airport list